Riachinho, Brazil
Current Conditions -  °F | °C
As of 9:00 AM on Wednesday 22 Oct 2014 (Local Time) from SBIZ Reporting Station
Broken Clouds Broken Clouds  
Wind Chill: 25°   Ceiling: 7000
Heat Index: 26°   Visibility: 5mi
Dew Point: 24°   Wind: 2mph
Humidity: 94%   Direction: 70°ENE
Pressure: 29.97"   Gusts: NA
Location:  6.44°S, 48.14°W
Report Text: SBIZ 221200Z 07002KT 8000 FEW030 BKN070 25/24 Q1015
Loading
Personal Weather Stations






























Interactive Weather Map
Tropical Storm Tracking
New forecast layout! Learn more

10-Day Weather Forecast

Advertisements
Track Severe Weather on mobile